sensor_id;sensor_type;location;lat;lon;timestamp;pressure;altitude;pressure_sealevel;temperature;humidity
36380;BME280;22411;53.016;18.632;2022-09-09T00:01:43;100387.66;;;13.13;100.00
36380;BME280;22411;53.016;18.632;2022-09-09T00:04:36;100387.56;;;13.14;100.00
36380;BME280;22411;53.016;18.632;2022-09-09T00:07:18;100384.38;;;13.11;100.00
36380;BME280;22411;53.016;18.632;2022-09-09T00:09:56;100384.63;;;13.07;100.00
36380;BME280;22411;53.016;18.632;2022-09-09T00:15:20;100382.28;;;13.04;100.00
36380;BME280;22411;53.016;18.632;2022-09-09T00:17:56;100383.47;;;13.00;100.00
36380;BME280;22411;53.016;18.632;2022-09-09T00:20:38;100388.94;;;12.97;100.00
36380;BME280;22411;53.016;18.632;2022-09-09T00:23:19;100385.00;;;12.92;100.00
36380;BME280;22411;53.016;18.632;2022-09-09T00:28:58;100387.28;;;12.85;100.00
36380;BME280;22411;53.016;18.632;2022-09-09T00:31:28;100390.03;;;12.83;100.00
36380;BME280;22411;53.016;18.632;2022-09-09T00:34:00;100391.44;;;12.88;100.00
36380;BME280;22411;53.016;18.632;2022-09-09T00:36:30;100385.03;;;12.80;100.00
36380;BME280;22411;53.016;18.632;2022-09-09T00:39:01;100389.44;;;12.80;100.00
36380;BME280;22411;53.016;18.632;2022-09-09T00:44:25;100388.28;;;12.73;100.00
36380;BME280;22411;53.016;18.632;2022-09-09T00:50:05;100379.88;;;12.69;100.00
36380;BME280;22411;53.016;18.632;2022-09-09T00:53:09;100376.22;;;12.72;100.00
36380;BME280;22411;53.016;18.632;2022-09-09T00:55:53;100376.81;;;12.64;100.00
36380;BME280;22411;53.016;18.632;2022-09-09T00:58:21;100378.13;;;12.59;100.00
36380;BME280;22411;53.016;18.632;2022-09-09T01:00:53;100379.06;;;12.57;100.00
36380;BME280;22411;53.016;18.632;2022-09-09T01:03:34;100386.53;;;12.62;100.00
36380;BME280;22411;53.016;18.632;2022-09-09T01:11:05;100392.56;;;12.51;100.00
36380;BME280;22411;53.016;18.632;2022-09-09T01:13:35;100384.28;;;12.46;100.00
36380;BME280;22411;53.016;18.632;2022-09-09T01:16:04;100384.28;;;12.46;100.00
36380;BME280;22411;53.016;18.632;2022-09-09T01:18:44;100390.53;;;12.44;100.00
36380;BME280;22411;53.016;18.632;2022-09-09T01:24:20;100392.09;;;12.46;100.00
36380;BME280;22411;53.016;18.632;2022-09-09T01:26:50;100392.09;;;12.46;100.00
36380;BME280;22411;53.016;18.632;2022-09-09T01:29:19;100385.72;;;12.50;100.00
36380;BME280;22411;53.016;18.632;2022-09-09T01:31:58;100395.66;;;12.45;100.00
36380;BME280;22411;53.016;18.632;2022-09-09T01:34:28;100399.66;;;12.38;100.00
36380;BME280;22411;53.016;18.632;2022-09-09T01:37:10;100392.09;;;12.35;100.00
36380;BME280;22411;53.016;18.632;2022-09-09T01:39:40;100393.53;;;12.39;100.00
36380;BME280;22411;53.016;18.632;2022-09-09T01:42:09;100397.88;;;12.39;100.00
36380;BME280;22411;53.016;18.632;2022-09-09T01:44:37;100403.94;;;12.39;100.00
36380;BME280;22411;53.016;18.632;2022-09-09T01:47:04;100397.78;;;12.40;100.00
36380;BME280;22411;53.016;18.632;2022-09-09T01:49:31;100398.00;;;12.37;100.00
36380;BME280;22411;53.016;18.632;2022-09-09T01:51:58;100399.06;;;12.35;100.00
36380;BME280;22411;53.016;18.632;2022-09-09T01:54:28;100395.66;;;12.34;100.00
36380;BME280;22411;53.016;18.632;2022-09-09T02:00:08;100399.44;;;12.30;100.00
36380;BME280;22411;53.016;18.632;2022-09-09T02:05:45;100394.81;;;12.22;100.00
36380;BME280;22411;53.016;18.632;2022-09-09T02:08:39;100392.81;;;12.15;100.00
36380;BME280;22411;53.016;18.632;2022-09-09T02:11:11;100394.31;;;12.17;100.00
36380;BME280;22411;53.016;18.632;2022-09-09T02:13:39;100393.84;;;12.12;100.00
36380;BME280;22411;53.016;18.632;2022-09-09T02:18:44;100386.19;;;12.11;100.00
36380;BME280;22411;53.016;18.632;2022-09-09T02:21:13;100387.34;;;12.07;100.00
36380;BME280;22411;53.016;18.632;2022-09-09T02:23:42;100383.94;;;12.06;100.00
36380;BME280;22411;53.016;18.632;2022-09-09T02:26:13;100384.66;;;12.08;100.00
36380;BME280;22411;53.016;18.632;2022-09-09T02:28:46;100386.66;;;12.04;100.00
36380;BME280;22411;53.016;18.632;2022-09-09T02:31:16;100384.75;;;12.07;100.00
36380;BME280;22411;53.016;18.632;2022-09-09T02:33:51;100384.06;;;12.04;100.00
36380;BME280;22411;53.016;18.632;2022-09-09T02:36:19;100379.69;;;12.05;100.00
36380;BME280;22411;53.016;18.632;2022-09-09T02:38:47;100376.88;;;12.08;100.00
36380;BME280;22411;53.016;18.632;2022-09-09T02:41:25;100382.88;;;12.09;100.00
36380;BME280;22411;53.016;18.632;2022-09-09T02:43:53;100378.75;;;12.06;100.00
36380;BME280;22411;53.016;18.632;2022-09-09T02:49:03;100376.28;;;12.04;100.00
36380;BME280;22411;53.016;18.632;2022-09-09T02:54:23;100385.72;;;12.06;100.00
36380;BME280;22411;53.016;18.632;2022-09-09T02:56:53;100378.16;;;12.02;100.00
36380;BME280;22411;53.016;18.632;2022-09-09T02:59:21;100385.09;;;12.02;100.00
36380;BME280;22411;53.016;18.632;2022-09-09T03:01:47;100379.22;;;12.00;100.00
36380;BME280;22411;53.016;18.632;2022-09-09T03:04:13;100378.38;;;11.99;100.00
36380;BME280;22411;53.016;18.632;2022-09-09T03:06:39;100378.38;;;11.99;100.00
36380;BME280;22411;53.016;18.632;2022-09-09T03:09:05;100378.25;;;12.01;100.00
36380;BME280;22411;53.016;18.632;2022-09-09T03:11:31;100388.78;;;11.99;100.00
36380;BME280;22411;53.016;18.632;2022-09-09T03:13:56;100381.81;;;12.00;100.00
36380;BME280;22411;53.016;18.632;2022-09-09T03:16:23;100379.56;;;11.95;100.00
36380;BME280;22411;53.016;18.632;2022-09-09T03:18:49;100387.25;;;11.97;100.00
36380;BME280;22411;53.016;18.632;2022-09-09T03:21:15;100382.50;;;12.02;100.00
36380;BME280;22411;53.016;18.632;2022-09-09T03:23:41;100386.66;;;12.04;100.00
36380;BME280;22411;53.016;18.632;2022-09-09T03:26:08;100385.00;;;12.03;100.00
36380;BME280;22411;53.016;18.632;2022-09-09T03:28:33;100396.09;;;12.06;100.00
36380;BME280;22411;53.016;18.632;2022-09-09T03:31:00;100380.63;;;12.04;100.00
36380;BME280;22411;53.016;18.632;2022-09-09T03:33:27;100393.75;;;12.02;100.00
36380;BME280;22411;53.016;18.632;2022-09-09T03:35:53;100392.81;;;12.03;100.00
36380;BME280;22411;53.016;18.632;2022-09-09T03:38:23;100395.88;;;12.09;100.00
36380;BME280;22411;53.016;18.632;2022-09-09T03:40:53;100390.78;;;12.07;100.00
36380;BME280;22411;53.016;18.632;2022-09-09T03:43:27;100389.25;;;12.04;100.00
36380;BME280;22411;53.016;18.632;2022-09-09T03:45:54;100389.94;;;12.07;100.00
36380;BME280;22411;53.016;18.632;2022-09-09T03:48:23;100388.91;;;12.09;100.00
36380;BME280;22411;53.016;18.632;2022-09-09T03:50:52;100390.69;;;12.09;100.00
36380;BME280;22411;53.016;18.632;2022-09-09T03:53:21;100391.50;;;12.09;100.00
36380;BME280;22411;53.016;18.632;2022-09-09T03:55:52;100391.03;;;12.15;100.00
36380;BME280;22411;53.016;18.632;2022-09-09T03:58:22;100394.72;;;12.13;100.00
36380;BME280;22411;53.016;18.632;2022-09-09T04:00:59;100389.38;;;12.14;100.00
36380;BME280;22411;53.016;18.632;2022-09-09T04:03:26;100391.97;;;12.14;100.00
36380;BME280;22411;53.016;18.632;2022-09-09T04:05:52;100388.66;;;12.12;100.00
36380;BME280;22411;53.016;18.632;2022-09-09T04:08:22;100395.53;;;12.13;100.00
36380;BME280;22411;53.016;18.632;2022-09-09T04:10:49;100398.94;;;12.14;100.00
36380;BME280;22411;53.016;18.632;2022-09-09T04:13:16;100399.19;;;12.11;100.00
36380;BME280;22411;53.016;18.632;2022-09-09T04:16:02;100399.78;;;12.14;100.00
36380;BME280;22411;53.016;18.632;2022-09-09T04:18:29;100391.03;;;12.15;100.00
36380;BME280;22411;53.016;18.632;2022-09-09T04:20:56;100395.53;;;12.13;100.00
36380;BME280;22411;53.016;18.632;2022-09-09T04:23:26;100398.00;;;12.15;100.00
36380;BME280;22411;53.016;18.632;2022-09-09T04:25:55;100394.44;;;12.16;100.00
36380;BME280;22411;53.016;18.632;2022-09-09T04:28:24;100394.31;;;12.17;100.00
36380;BME280;22411;53.016;18.632;2022-09-09T04:30:51;100393.28;;;12.20;100.00
36380;BME280;22411;53.016;18.632;2022-09-09T04:33:18;100396.69;;;12.20;100.00
36380;BME280;22411;53.016;18.632;2022-09-09T04:35:46;100394.09;;;12.20;100.00
36380;BME280;22411;53.016;18.632;2022-09-09T04:38:13;100397.41;;;12.22;100.00
36380;BME280;22411;53.016;18.632;2022-09-09T04:40:42;100389.59;;;12.22;100.00
36380;BME280;22411;53.016;18.632;2022-09-09T04:43:09;100394.94;;;12.21;100.00
36380;BME280;22411;53.016;18.632;2022-09-09T04:45:35;100401.19;;;12.18;100.00
36380;BME280;22411;53.016;18.632;2022-09-09T04:48:01;100399.31;;;12.20;100.00
36380;BME280;22411;53.016;18.632;2022-09-09T04:50:28;100400.94;;;12.21;100.00
36380;BME280;22411;53.016;18.632;2022-09-09T04:52:54;100404.97;;;12.25;100.00
36380;BME280;22411;53.016;18.632;2022-09-09T04:55:19;100396.09;;;12.28;100.00
36380;BME280;22411;53.016;18.632;2022-09-09T04:57:45;100401.19;;;12.29;100.00
36380;BME280;22411;53.016;18.632;2022-09-09T05:00:12;100408.16;;;12.29;100.00
36380;BME280;22411;53.016;18.632;2022-09-09T05:02:39;100405.56;;;12.29;100.00
36380;BME280;22411;53.016;18.632;2022-09-09T05:05:06;100402.97;;;12.29;100.00
36380;BME280;22411;53.016;18.632;2022-09-09T05:07:32;100400.25;;;12.30;100.00
36380;BME280;22411;53.016;18.632;2022-09-09T05:09:58;100410.88;;;12.27;100.00
36380;BME280;22411;53.016;18.632;2022-09-09T05:12:25;100406.28;;;12.31;100.00
36380;BME280;22411;53.016;18.632;2022-09-09T05:14:51;100413.13;;;12.32;100.00
36380;BME280;22411;53.016;18.632;2022-09-09T05:17:17;100409.56;;;12.33;100.00
36380;BME280;22411;53.016;18.632;2022-09-09T05:19:43;100409.56;;;12.33;100.00
36380;BME280;22411;53.016;18.632;2022-09-09T05:22:10;100415.59;;;12.34;100.00
36380;BME280;22411;53.016;18.632;2022-09-09T05:24:37;100415.59;;;12.34;100.00
36380;BME280;22411;53.016;18.632;2022-09-09T05:27:04;100420.78;;;12.34;100.00
36380;BME280;22411;53.016;18.632;2022-09-09T05:29:32;100427.66;;;12.35;100.00
36380;BME280;22411;53.016;18.632;2022-09-09T05:32:01;100417.97;;;12.37;100.00
36380;BME280;22411;53.016;18.632;2022-09-09T05:34:26;100417.84;;;12.38;100.00
36380;BME280;22411;53.016;18.632;2022-09-09T05:36:52;100416.19;;;12.37;100.00
36380;BME280;22411;53.016;18.632;2022-09-09T05:39:19;100417.63;;;12.41;100.00
36380;BME280;22411;53.016;18.632;2022-09-09T05:41:45;100421.16;;;12.40;100.00
36380;BME280;22411;53.016;18.632;2022-09-09T05:44:10;100424.59;;;12.41;100.00
36380;BME280;22411;53.016;18.632;2022-09-09T05:46:36;100434.03;;;12.42;100.00
36380;BME280;22411;53.016;18.632;2022-09-09T05:49:03;100428.47;;;12.46;100.00
36380;BME280;22411;53.016;18.632;2022-09-09T05:51:31;100427.41;;;12.49;100.00
36380;BME280;22411;53.016;18.632;2022-09-09T05:53:57;100431.78;;;12.48;100.00
36380;BME280;22411;53.016;18.632;2022-09-09T05:56:29;100420.06;;;12.54;100.00
36380;BME280;22411;53.016;18.632;2022-09-09T05:58:56;100423.97;;;12.60;100.00
36380;BME280;22411;53.016;18.632;2022-09-09T06:01:23;100422.44;;;12.57;100.00
36380;BME280;22411;53.016;18.632;2022-09-09T06:03:50;100426.34;;;12.63;100.00
36380;BME280;22411;53.016;18.632;2022-09-09T06:06:19;100427.53;;;12.59;100.00
36380;BME280;22411;53.016;18.632;2022-09-09T06:08:47;100428.72;;;12.66;100.00
36380;BME280;22411;53.016;18.632;2022-09-09T06:11:15;100433.19;;;12.64;100.00
36380;BME280;22411;53.016;18.632;2022-09-09T06:13:42;100430.09;;;12.70;100.00
36380;BME280;22411;53.016;18.632;2022-09-09T06:16:13;100438.63;;;12.72;100.00
36380;BME280;22411;53.016;18.632;2022-09-09T06:18:40;100432.59;;;12.71;100.00
36380;BME280;22411;53.016;18.632;2022-09-09T06:21:15;100437.00;;;12.71;100.00
36380;BME280;22411;53.016;18.632;2022-09-09T06:23:41;100439.31;;;12.74;100.00
36380;BME280;22411;53.016;18.632;2022-09-09T06:26:12;100448.22;;;12.71;100.00
36380;BME280;22411;53.016;18.632;2022-09-09T06:28:39;100449.38;;;12.67;100.00
36380;BME280;22411;53.016;18.632;2022-09-09T06:31:07;100448.31;;;12.70;100.00
36380;BME280;22411;53.016;18.632;2022-09-09T06:33:38;100447.13;;;12.74;100.00
36380;BME280;22411;53.016;18.632;2022-09-09T06:36:30;100442.16;;;12.82;100.00
36380;BME280;22411;53.016;18.632;2022-09-09T06:38:57;100450.03;;;12.92;100.00
36380;BME280;22411;53.016;18.632;2022-09-09T06:41:25;100457.03;;;13.02;100.00
36380;BME280;22411;53.016;18.632;2022-09-09T06:43:54;100449.91;;;13.04;100.00
36380;BME280;22411;53.016;18.632;2022-09-09T06:46:23;100450.97;;;13.13;100.00
36380;BME280;22411;53.016;18.632;2022-09-09T06:48:49;100455.47;;;13.11;100.00
36380;BME280;22411;53.016;18.632;2022-09-09T06:51:16;100457.38;;;13.09;100.00
36380;BME280;22411;53.016;18.632;2022-09-09T06:53:45;100470.47;;;13.07;100.00
36380;BME280;22411;53.016;18.632;2022-09-09T06:56:29;100465.28;;;13.07;100.00
36380;BME280;22411;53.016;18.632;2022-09-09T06:58:57;100463.53;;;13.08;100.00
36380;BME280;22411;53.016;18.632;2022-09-09T07:01:29;100466.13;;;13.08;100.00
36380;BME280;22411;53.016;18.632;2022-09-09T07:03:56;100465.72;;;13.13;100.00
36380;BME280;22411;53.016;18.632;2022-09-09T07:06:31;100469.06;;;13.15;100.00
36380;BME280;22411;53.016;18.632;2022-09-09T07:09:01;100463.34;;;13.21;100.00
36380;BME280;22411;53.016;18.632;2022-09-09T07:11:29;100465.97;;;13.21;100.00
36380;BME280;22411;53.016;18.632;2022-09-09T07:13:57;100464.81;;;13.25;100.00
36380;BME280;22411;53.016;18.632;2022-09-09T07:16:23;100468.56;;;13.32;100.00
36380;BME280;22411;53.016;18.632;2022-09-09T07:18:50;100476.13;;;13.35;100.00
36380;BME280;22411;53.016;18.632;2022-09-09T07:21:17;100465.72;;;13.35;100.00
36380;BME280;22411;53.016;18.632;2022-09-09T07:23:43;100468.66;;;13.42;100.00
36380;BME280;22411;53.016;18.632;2022-09-09T07:26:17;100469.94;;;13.47;100.00
36380;BME280;22411;53.016;18.632;2022-09-09T07:28:45;100477.38;;;13.52;100.00
36380;BME280;22411;53.016;18.632;2022-09-09T07:31:16;100477.97;;;13.55;100.00
36380;BME280;22411;53.016;18.632;2022-09-09T07:33:42;100479.59;;;13.56;100.00
36380;BME280;22411;53.016;18.632;2022-09-09T07:36:13;100482.22;;;13.56;100.00
36380;BME280;22411;53.016;18.632;2022-09-09T07:38:40;100487.28;;;13.58;100.00
36380;BME280;22411;53.016;18.632;2022-09-09T07:41:08;100484.53;;;13.59;100.00
36380;BME280;22411;53.016;18.632;2022-09-09T07:43:39;100486.78;;;13.64;100.00
36380;BME280;22411;53.016;18.632;2022-09-09T07:46:06;100494.84;;;13.61;100.00
36380;BME280;22411;53.016;18.632;2022-09-09T07:48:33;100495.91;;;13.58;100.00
36380;BME280;22411;53.016;18.632;2022-09-09T07:53:29;100499.13;;;13.62;100.00
36380;BME280;22411;53.016;18.632;2022-09-09T07:56:03;100502.03;;;13.69;100.00
36380;BME280;22411;53.016;18.632;2022-09-09T07:58:29;100505.31;;;13.71;100.00
36380;BME280;22411;53.016;18.632;2022-09-09T08:00:54;100500.84;;;13.73;100.00
36380;BME280;22411;53.016;18.632;2022-09-09T08:03:20;100503.69;;;13.70;100.00
36380;BME280;22411;53.016;18.632;2022-09-09T08:05:47;100508.06;;;13.69;100.00
36380;BME280;22411;53.016;18.632;2022-09-09T08:08:13;100506.19;;;13.71;100.00
36380;BME280;22411;53.016;18.632;2022-09-09T08:10:39;100500.34;;;13.79;100.00
36380;BME280;22411;53.016;18.632;2022-09-09T08:13:05;100505.88;;;13.85;100.00
36380;BME280;22411;53.016;18.632;2022-09-09T08:15:31;100508.91;;;13.91;100.00
36380;BME280;22411;53.016;18.632;2022-09-09T08:17:57;100507.13;;;13.91;100.00
36380;BME280;22411;53.016;18.632;2022-09-09T08:20:23;100515.41;;;13.96;100.00
36380;BME280;22411;53.016;18.632;2022-09-09T08:22:49;100514.72;;;13.94;100.00
36380;BME280;22411;53.016;18.632;2022-09-09T08:25:16;100519.66;;;13.97;100.00
36380;BME280;22411;53.016;18.632;2022-09-09T08:27:41;100520.97;;;14.03;100.00
36380;BME280;22411;53.016;18.632;2022-09-09T08:30:07;100516.88;;;14.10;100.00
36380;BME280;22411;53.016;18.632;2022-09-09T08:32:34;100519.56;;;14.20;100.00
36380;BME280;22411;53.016;18.632;2022-09-09T08:35:00;100523.44;;;14.25;100.00
36380;BME280;22411;53.016;18.632;2022-09-09T08:37:26;100525.38;;;14.33;100.00
36380;BME280;22411;53.016;18.632;2022-09-09T08:39:52;100526.66;;;14.38;100.00
36380;BME280;22411;53.016;18.632;2022-09-09T08:50:30;100537.44;;;14.76;100.00
36380;BME280;22411;53.016;18.632;2022-09-09T08:53:08;100540.91;;;14.86;100.00
36380;BME280;22411;53.016;18.632;2022-09-09T08:58:17;100543.25;;;14.89;100.00
36380;BME280;22411;53.016;18.632;2022-09-09T09:00:50;100550.31;;;14.98;100.00
36380;BME280;22411;53.016;18.632;2022-09-09T09:09:10;100550.00;;;15.41;100.00
36380;BME280;22411;53.016;18.632;2022-09-09T09:11:40;100550.44;;;15.56;100.00
36380;BME280;22411;53.016;18.632;2022-09-09T09:14:18;100555.97;;;15.63;100.00
36380;BME280;22411;53.016;18.632;2022-09-09T09:17:06;100556.59;;;15.55;100.00
36380;BME280;22411;53.016;18.632;2022-09-09T09:19:34;100552.75;;;15.50;100.00
36380;BME280;22411;53.016;18.632;2022-09-09T09:22:37;100554.84;;;15.46;100.00
36380;BME280;22411;53.016;18.632;2022-09-09T09:27:35;100560.59;;;15.40;100.00
36380;BME280;22411;53.016;18.632;2022-09-09T09:30:23;100559.34;;;15.44;100.00
36380;BME280;22411;53.016;18.632;2022-09-09T09:32:56;100560.59;;;15.50;100.00
36380;BME280;22411;53.016;18.632;2022-09-09T09:35:24;100566.22;;;15.55;100.00
36380;BME280;22411;53.016;18.632;2022-09-09T09:37:49;100565.41;;;15.54;100.00
36380;BME280;22411;53.016;18.632;2022-09-09T09:40:19;100565.97;;;15.58;100.00
36380;BME280;22411;53.016;18.632;2022-09-09T09:45:20;100571.75;;;15.52;100.00
36380;BME280;22411;53.016;18.632;2022-09-09T09:48:00;100573.13;;;15.56;100.00
36380;BME280;22411;53.016;18.632;2022-09-09T09:50:27;100577.50;;;15.55;100.00
36380;BME280;22411;53.016;18.632;2022-09-09T09:53:02;100582.06;;;15.53;100.00
36380;BME280;22411;53.016;18.632;2022-09-09T09:55:33;100586.59;;;15.51;100.00
36380;BME280;22411;53.016;18.632;2022-09-09T09:58:05;100587.69;;;15.58;100.00
36380;BME280;22411;53.016;18.632;2022-09-09T10:00:32;100579.84;;;15.58;100.00
36380;BME280;22411;53.016;18.632;2022-09-09T10:03:00;100584.25;;;15.58;100.00
36380;BME280;22411;53.016;18.632;2022-09-09T10:05:29;100583.03;;;15.62;100.00
36380;BME280;22411;53.016;18.632;2022-09-09T10:08:10;100585.53;;;15.63;100.00
36380;BME280;22411;53.016;18.632;2022-09-09T10:19:18;100587.97;;;15.55;100.00
36380;BME280;22411;53.016;18.632;2022-09-09T10:29:40;100579.38;;;15.74;100.00
36380;BME280;22411;53.016;18.632;2022-09-09T10:32:22;100573.03;;;15.86;100.00
36380;BME280;22411;53.016;18.632;2022-09-09T10:40:15;100585.41;;;16.13;100.00
36380;BME280;22411;53.016;18.632;2022-09-09T10:42:45;100584.72;;;16.21;100.00
36380;BME280;22411;53.016;18.632;2022-09-09T10:50:46;100598.34;;;16.25;100.00
36380;BME280;22411;53.016;18.632;2022-09-09T10:54:11;100600.00;;;16.16;100.00
36380;BME280;22411;53.016;18.632;2022-09-09T10:56:26;100600.41;;;16.11;100.00
36380;BME280;22411;53.016;18.632;2022-09-09T11:01:25;100612.53;;;16.22;100.00
36380;BME280;22411;53.016;18.632;2022-09-09T11:04:05;100616.09;;;16.21;100.00
36380;BME280;22411;53.016;18.632;2022-09-09T11:06:40;100602.47;;;16.17;100.00
36380;BME280;22411;53.016;18.632;2022-09-09T11:09:15;100613.22;;;16.14;100.00
36380;BME280;22411;53.016;18.632;2022-09-09T11:11:55;100607.03;;;16.25;100.00
36380;BME280;22411;53.016;18.632;2022-09-09T11:14:44;100614.16;;;16.33;100.00
36380;BME280;22411;53.016;18.632;2022-09-09T11:17:18;100619.66;;;16.39;100.00
36380;BME280;22411;53.016;18.632;2022-09-09T11:19:45;100619.25;;;16.44;100.00
36380;BME280;22411;53.016;18.632;2022-09-09T11:22:21;100625.28;;;16.44;100.00
36380;BME280;22411;53.016;18.632;2022-09-09T11:27:37;100623.66;;;16.72;100.00
36380;BME280;22411;53.016;18.632;2022-09-09T11:35:29;100638.41;;;17.11;100.00
36380;BME280;22411;53.016;18.632;2022-09-09T11:40:27;100637.78;;;17.54;100.00
36380;BME280;22411;53.016;18.632;2022-09-09T11:43:22;100640.63;;;17.88;100.00
36380;BME280;22411;53.016;18.632;2022-09-09T11:45:55;100636.56;;;18.29;100.00
36380;BME280;22411;53.016;18.632;2022-09-09T11:48:42;100634.97;;;18.54;100.00
36380;BME280;22411;53.016;18.632;2022-09-09T11:51:12;100640.16;;;18.90;100.00
36380;BME280;22411;53.016;18.632;2022-09-09T11:53:55;100639.53;;;18.96;100.00
36380;BME280;22411;53.016;18.632;2022-09-09T11:59:23;100640.50;;;18.95;100.00
36380;BME280;22411;53.016;18.632;2022-09-09T12:06:55;100638.44;;;19.49;100.00
36380;BME280;22411;53.016;18.632;2022-09-09T12:14:55;100643.22;;;20.04;100.00
36380;BME280;22411;53.016;18.632;2022-09-09T12:17:25;100638.44;;;20.65;100.00
36380;BME280;22411;53.016;18.632;2022-09-09T12:23:05;100646.22;;;21.30;100.00
36380;BME280;22411;53.016;18.632;2022-09-09T12:28:17;100636.34;;;21.08;100.00
36380;BME280;22411;53.016;18.632;2022-09-09T12:33:17;100631.38;;;20.57;100.00
36380;BME280;22411;53.016;18.632;2022-09-09T12:35:54;100634.34;;;20.54;100.00
36380;BME280;22411;53.016;18.632;2022-09-09T12:38:41;100632.19;;;20.74;100.00
36380;BME280;22411;53.016;18.632;2022-09-09T12:41:22;100620.50;;;21.63;100.00
36380;BME280;22411;53.016;18.632;2022-09-09T12:43:48;100624.59;;;22.20;100.00
36380;BME280;22411;53.016;18.632;2022-09-09T12:46:31;100624.75;;;22.18;100.00
36380;BME280;22411;53.016;18.632;2022-09-09T12:48:59;100623.84;;;22.03;100.00
36380;BME280;22411;53.016;18.632;2022-09-09T12:51:32;100609.81;;;21.57;100.00
36380;BME280;22411;53.016;18.632;2022-09-09T12:53:59;100604.34;;;21.19;100.00
36380;BME280;22411;53.016;18.632;2022-09-09T12:56:32;100613.44;;;21.17;100.00
36380;BME280;22411;53.016;18.632;2022-09-09T12:58:59;100611.94;;;21.30;100.00
36380;BME280;22411;53.016;18.632;2022-09-09T13:01:31;100612.22;;;21.35;100.00
36380;BME280;22411;53.016;18.632;2022-09-09T13:03:58;100605.22;;;21.51;100.00
36380;BME280;22411;53.016;18.632;2022-09-09T13:06:29;100602.28;;;21.46;100.00
36380;BME280;22411;53.016;18.632;2022-09-09T13:08:57;100604.28;;;21.44;100.00
36380;BME280;22411;53.016;18.632;2022-09-09T13:11:29;100604.47;;;21.42;100.00
36380;BME280;22411;53.016;18.632;2022-09-09T13:13:57;100599.91;;;21.59;100.00
36380;BME280;22411;53.016;18.632;2022-09-09T13:16:34;100604.91;;;22.23;100.00
36380;BME280;22411;53.016;18.632;2022-09-09T13:19:09;100609.09;;;23.29;100.00
36380;BME280;22411;53.016;18.632;2022-09-09T13:21:39;100607.59;;;23.77;100.00
36380;BME280;22411;53.016;18.632;2022-09-09T13:27:50;100608.13;;;23.00;100.00
36380;BME280;22411;53.016;18.632;2022-09-09T13:29:51;100604.56;;;22.26;100.00
36380;BME280;22411;53.016;18.632;2022-09-09T13:32:22;100601.63;;;21.98;100.00
36380;BME280;22411;53.016;18.632;2022-09-09T13:34:58;100605.38;;;22.79;100.00
36380;BME280;22411;53.016;18.632;2022-09-09T13:37:38;100598.59;;;23.93;100.00
36380;BME280;22411;53.016;18.632;2022-09-09T13:40:17;100594.00;;;24.86;100.00
36380;BME280;22411;53.016;18.632;2022-09-09T13:42:44;100599.91;;;25.16;100.00
36380;BME280;22411;53.016;18.632;2022-09-09T13:45:18;100597.03;;;25.17;100.00
36380;BME280;22411;53.016;18.632;2022-09-09T13:47:47;100595.47;;;24.54;100.00
36380;BME280;22411;53.016;18.632;2022-09-09T13:50:23;100596.66;;;23.80;100.00
36380;BME280;22411;53.016;18.632;2022-09-09T13:52:56;100604.44;;;23.31;100.00
36380;BME280;22411;53.016;18.632;2022-09-09T13:55:28;100588.09;;;23.42;100.00
36380;BME280;22411;53.016;18.632;2022-09-09T13:58:00;100589.31;;;24.04;100.00
36380;BME280;22411;53.016;18.632;2022-09-09T14:00:29;100595.13;;;24.63;100.00
36380;BME280;22411;53.016;18.632;2022-09-09T14:02:56;100603.38;;;24.82;100.00
36380;BME280;22411;53.016;18.632;2022-09-09T14:05:23;100598.75;;;24.34;100.00
36380;BME280;22411;53.016;18.632;2022-09-09T14:07:49;100601.06;;;24.16;100.00
36380;BME280;22411;53.016;18.632;2022-09-09T14:10:15;100599.41;;;24.36;100.00
36380;BME280;22411;53.016;18.632;2022-09-09T14:12:41;100606.66;;;24.84;100.00
36380;BME280;22411;53.016;18.632;2022-09-09T14:15:09;100605.72;;;25.04;97.05
36380;BME280;22411;53.016;18.632;2022-09-09T14:17:35;100607.06;;;25.22;95.95
36380;BME280;22411;53.016;18.632;2022-09-09T14:20:05;100609.81;;;25.55;94.40
36380;BME280;22411;53.016;18.632;2022-09-09T14:22:35;100609.22;;;25.60;91.08
36380;BME280;22411;53.016;18.632;2022-09-09T14:25:02;100603.09;;;25.72;90.65
36380;BME280;22411;53.016;18.632;2022-09-09T14:27:28;100608.69;;;25.97;89.35
36380;BME280;22411;53.016;18.632;2022-09-09T14:29:55;100609.72;;;25.90;89.22
36380;BME280;22411;53.016;18.632;2022-09-09T14:32:23;100606.84;;;25.98;88.64
36380;BME280;22411;53.016;18.632;2022-09-09T14:34:48;100599.53;;;26.00;89.64
36380;BME280;22411;53.016;18.632;2022-09-09T14:37:18;100602.56;;;26.03;89.92
36380;BME280;22411;53.016;18.632;2022-09-09T14:39:44;100600.75;;;26.11;89.30
36380;BME280;22411;53.016;18.632;2022-09-09T14:42:13;100602.38;;;26.05;88.42
36380;BME280;22411;53.016;18.632;2022-09-09T14:44:39;100597.44;;;26.15;88.24
36380;BME280;22411;53.016;18.632;2022-09-09T14:47:06;100595.63;;;26.09;88.59
36380;BME280;22411;53.016;18.632;2022-09-09T14:49:37;100585.63;;;26.18;87.99
36380;BME280;22411;53.016;18.632;2022-09-09T14:52:03;100591.56;;;26.00;88.67